createdAt,value
2022-11-06T00:01:16.614Z,71.63
2022-11-06T00:04:18.473Z,69.10
2022-11-06T00:07:20.651Z,71.97
2022-11-06T00:10:23.497Z,62.77
2022-11-06T00:13:25.981Z,63.73
2022-11-06T00:16:28.345Z,60.13
2022-11-06T00:19:30.563Z,64.93
2022-11-06T00:22:33.987Z,57.47
2022-11-06T00:25:40.229Z,54.50
2022-11-06T00:28:42.471Z,57.10
2022-11-06T00:31:44.695Z,59.03
2022-11-06T00:34:47.736Z,55.07
2022-11-06T00:37:50.023Z,58.17
2022-11-06T00:40:51.883Z,51.93
2022-11-06T00:43:57.280Z,45.43
2022-11-06T00:46:59.183Z,42.17
2022-11-06T00:50:01.493Z,49.97
2022-11-06T00:53:03.368Z,43.40
2022-11-06T00:56:17.205Z,50.00
2022-11-06T00:59:19.064Z,44.20
2022-11-06T01:02:21.378Z,48.77
2022-11-06T01:05:23.342Z,46.50
2022-11-06T01:08:25.509Z,50.10
2022-11-06T01:11:59.183Z,50.77
2022-11-06T01:14:58.842Z,51.97
2022-11-06T01:18:00.782Z,56.03
2022-11-06T01:21:08.118Z,54.03
2022-11-06T01:24:18.480Z,53.53
2022-11-06T01:27:26.431Z,52.30
2022-11-06T01:30:29.072Z,51.70
2022-11-06T01:33:31.483Z,55.87
2022-11-06T01:36:33.697Z,56.23
2022-11-06T01:39:35.847Z,56.33
2022-11-06T01:42:37.735Z,54.37
2022-11-06T01:45:40.874Z,49.23
2022-11-06T01:48:47.567Z,55.50
2022-11-06T01:51:59.951Z,54.67
2022-11-06T01:55:19.588Z,52.87
2022-11-06T01:58:23.666Z,47.63
2022-11-06T02:01:25.637Z,55.87
2022-11-06T02:04:40.606Z,61.27
2022-11-06T02:07:43.838Z,59.97
2022-11-06T02:10:46.662Z,63.70
2022-11-06T02:14:10.247Z,63.00
2022-11-06T02:17:42.102Z,67.77
2022-11-06T02:20:56.950Z,59.80
2022-11-06T02:24:04.978Z,66.60
2022-11-06T02:27:20.116Z,64.23
2022-11-06T02:30:22.422Z,60.30
2022-11-06T02:33:33.453Z,57.53
2022-11-06T02:36:55.123Z,55.83
2022-11-06T02:40:00.369Z,59.80
2022-11-06T02:43:09.141Z,61.03
2022-11-06T02:46:20.304Z,55.57
2022-11-06T02:49:34.476Z,50.97
2022-11-06T02:52:48.043Z,52.83
2022-11-06T02:55:53.908Z,47.27
2022-11-06T02:59:02.658Z,55.63
2022-11-06T03:02:10.369Z,56.10
2022-11-06T03:05:21.772Z,60.70
2022-11-06T03:08:43.549Z,59.57
2022-11-06T03:11:51.571Z,53.10
2022-11-06T03:15:06.591Z,53.43
2022-11-06T03:18:33.513Z,44.20
2022-11-06T03:21:57.099Z,52.63
2022-11-06T03:25:19.082Z,49.40
2022-11-06T03:28:32.048Z,54.47
2022-11-06T03:31:39.269Z,56.13
2022-11-06T03:35:07.356Z,46.03
2022-11-06T03:38:20.507Z,43.33
2022-11-06T03:41:33.661Z,47.33
2022-11-06T03:44:44.367Z,55.80
2022-11-06T03:48:03.433Z,46.47
2022-11-06T03:51:20.047Z,45.83
2022-11-06T03:54:31.053Z,48.47
2022-11-06T03:57:45.034Z,43.00
2022-11-06T04:00:48.272Z,49.70
2022-11-06T04:03:58.331Z,44.70
2022-11-06T04:07:05.805Z,44.77
2022-11-06T04:10:29.719Z,43.03
2022-11-06T04:13:53.729Z,47.00
2022-11-06T04:17:01.054Z,37.33
2022-11-06T04:20:08.305Z,42.13
2022-11-06T04:23:36.651Z,30.37
2022-11-06T04:27:01.790Z,27.90
2022-11-06T04:30:11.860Z,31.40
2022-11-06T04:33:31.085Z,35.40
2022-11-06T04:36:44.891Z,37.80
2022-11-06T04:39:46.974Z,37.83
2022-11-06T04:43:07.893Z,40.10
2022-11-06T04:46:13.951Z,34.63
2022-11-06T04:49:16.500Z,30.43
2022-11-06T04:52:23.351Z,33.00
2022-11-06T04:55:26.111Z,38.50
2022-11-06T04:58:28.332Z,39.50
2022-11-06T05:01:30.506Z,35.97
2022-11-06T05:04:33.687Z,35.73
2022-11-06T05:07:35.632Z,42.23
2022-11-06T05:10:37.748Z,32.83
2022-11-06T05:13:39.624Z,38.67
2022-11-06T05:16:41.988Z,35.67
2022-11-06T05:19:43.817Z,39.17
2022-11-06T05:22:58.312Z,38.97
2022-11-06T05:26:00.141Z,35.57
2022-11-06T05:29:02.362Z,34.83
2022-11-06T05:32:04.507Z,37.97
2022-11-06T05:35:06.978Z,36.20
2022-11-06T05:38:08.809Z,34.63
2022-11-06T05:41:11.041Z,35.07
2022-11-06T05:44:12.957Z,33.17
2022-11-06T05:47:15.161Z,39.43
2022-11-06T05:50:17.275Z,36.27
2022-11-06T05:53:19.430Z,38.23
2022-11-06T05:56:21.303Z,33.23
2022-11-06T05:59:23.590Z,25.77
2022-11-06T06:02:25.868Z,35.07
2022-11-06T06:05:28.136Z,28.47
2022-11-06T06:08:30.024Z,35.97
2022-11-06T06:11:32.209Z,31.43
2022-11-06T06:14:34.098Z,37.17
2022-11-06T06:17:36.292Z,38.60
2022-11-06T06:20:38.269Z,33.40
2022-11-06T06:23:41.530Z,34.57
2022-11-06T06:26:43.585Z,40.10
2022-11-06T06:29:46.019Z,28.97
2022-11-06T06:32:47.949Z,30.70
2022-11-06T06:35:50.815Z,28.60
2022-11-06T06:38:52.887Z,27.60
2022-11-06T06:41:55.049Z,38.13
2022-11-06T06:44:57.021Z,26.20
2022-11-06T06:48:06.574Z,27.70
2022-11-06T06:51:09.029Z,27.53
2022-11-06T06:54:11.239Z,30.73
2022-11-06T06:57:13.137Z,23.33
2022-11-06T07:00:15.843Z,19.87
2022-11-06T07:03:17.985Z,20.87
2022-11-06T07:06:20.498Z,23.77
2022-11-06T07:09:26.248Z,18.87
2022-11-06T07:12:28.490Z,26.90
2022-11-06T07:15:30.881Z,16.20
2022-11-06T07:18:34.013Z,21.93
2022-11-06T07:21:35.882Z,16.20
2022-11-06T07:24:38.196Z,18.27
2022-11-06T07:27:41.409Z,18.67
2022-11-06T07:30:43.578Z,15.27
2022-11-06T07:33:45.419Z,13.47
2022-11-06T07:36:47.521Z,18.73
2022-11-06T07:39:49.395Z,16.30
2022-11-06T07:42:51.563Z,17.63
2022-11-06T07:45:53.385Z,15.77
2022-11-06T07:48:55.575Z,13.87
2022-11-06T07:51:57.459Z,11.63
2022-11-06T07:55:00.061Z,12.90
2022-11-06T07:58:02.066Z,11.57
2022-11-06T08:01:04.590Z,11.40
2022-11-06T08:04:06.533Z,13.27
2022-11-06T08:07:09.109Z,11.43
2022-11-06T08:10:11.047Z,12.57
2022-11-06T08:13:15.924Z,12.07
2022-11-06T08:16:17.881Z,17.57
2022-11-06T08:19:20.029Z,15.33
2022-11-06T08:22:21.934Z,11.57
2022-11-06T08:25:24.073Z,12.97
2022-11-06T08:28:26.660Z,16.27
2022-11-06T08:31:29.838Z,17.77
2022-11-06T08:34:34.158Z,15.73
2022-11-06T08:37:36.681Z,17.10
2022-11-06T08:40:39.782Z,20.13
2022-11-06T08:43:42.101Z,14.83
2022-11-06T08:46:49.352Z,15.87
2022-11-06T08:49:56.094Z,13.17
2022-11-06T08:53:04.047Z,14.70
2022-11-06T08:56:06.944Z,12.40
2022-11-06T08:59:09.003Z,11.40
2022-11-06T09:02:13.573Z,11.43
2022-11-06T09:05:15.606Z,9.93
2022-11-06T09:08:17.863Z,10.67
2022-11-06T09:11:19.759Z,14.50
2022-11-06T09:14:22.063Z,12.27
2022-11-06T09:17:24.439Z,12.80
2022-11-06T09:20:27.212Z,13.17
2022-11-06T09:23:29.171Z,12.23
2022-11-06T09:26:31.365Z,10.53
2022-11-06T09:29:33.279Z,11.23
2022-11-06T09:32:35.398Z,10.67
2022-11-06T09:35:37.313Z,13.00
2022-11-06T09:38:39.582Z,12.63
2022-11-06T09:41:58.176Z,11.97
2022-11-06T09:45:12.865Z,11.57
2022-11-06T09:48:41.958Z,8.10
2022-11-06T09:51:53.274Z,10.20
2022-11-06T09:55:04.567Z,9.53
2022-11-06T09:58:13.991Z,9.33
2022-11-06T10:01:27.058Z,12.77
2022-11-06T10:04:38.383Z,9.47
2022-11-06T10:07:42.466Z,11.17
2022-11-06T10:11:06.625Z,13.77
2022-11-06T10:14:15.233Z,13.07
2022-11-06T10:17:26.541Z,9.57
2022-11-06T10:20:33.476Z,8.50
2022-11-06T10:23:50.899Z,9.03
2022-11-06T10:26:56.391Z,9.33
2022-11-06T10:30:04.815Z,10.63
2022-11-06T10:33:29.385Z,8.90
2022-11-06T10:37:12.944Z,13.77
2022-11-06T10:40:19.753Z,9.87
2022-11-06T10:43:32.070Z,10.93
2022-11-06T10:46:36.462Z,11.27
2022-11-06T10:49:46.179Z,8.03
2022-11-06T10:52:58.559Z,12.47
2022-11-06T10:56:25.146Z,10.63
2022-11-06T10:59:27.921Z,9.10
2022-11-06T11:02:40.890Z,10.87
2022-11-06T11:05:44.301Z,10.70
2022-11-06T11:08:51.007Z,10.97
2022-11-06T11:11:52.845Z,9.83
2022-11-06T11:15:17.429Z,10.03
2022-11-06T11:18:31.677Z,9.47
2022-11-06T11:21:34.647Z,10.20
2022-11-06T11:24:36.570Z,9.40
2022-11-06T11:27:44.464Z,9.10
2022-11-06T11:30:52.187Z,10.93
2022-11-06T11:33:56.676Z,12.10
2022-11-06T11:37:03.291Z,10.37
2022-11-06T11:40:36.324Z,7.17
2022-11-06T11:43:39.047Z,8.00
2022-11-06T11:46:48.860Z,5.87
2022-11-06T11:49:50.879Z,7.67
2022-11-06T11:52:58.378Z,6.37
2022-11-06T11:56:00.547Z,8.93
2022-11-06T11:59:04.406Z,11.47
2022-11-06T12:02:28.389Z,11.27
2022-11-06T12:05:40.665Z,8.37
2022-11-06T12:08:52.205Z,7.37
2022-11-06T12:11:56.406Z,9.50
2022-11-06T12:15:23.078Z,9.87
2022-11-06T12:18:43.794Z,9.00
2022-11-06T12:21:51.962Z,10.73
2022-11-06T12:25:25.754Z,7.77
2022-11-06T12:28:30.820Z,8.43
2022-11-06T12:31:33.497Z,10.67
2022-11-06T12:34:45.130Z,8.10
2022-11-06T12:38:19.718Z,7.67
2022-11-06T12:41:27.692Z,8.47
2022-11-06T12:44:29.870Z,7.57
2022-11-06T12:47:57.619Z,9.30
2022-11-06T12:51:17.145Z,8.80
2022-11-06T12:54:56.813Z,7.50
2022-11-06T12:58:11.472Z,9.93
2022-11-06T13:01:53.601Z,11.27
2022-11-06T13:05:34.996Z,7.93
2022-11-06T13:09:20.973Z,9.63
2022-11-06T13:12:44.340Z,8.20
2022-11-06T13:16:15.578Z,8.00
2022-11-06T13:19:59.970Z,11.87
2022-11-06T13:23:31.740Z,8.97
2022-11-06T13:27:21.825Z,10.43
2022-11-06T13:30:27.049Z,13.33
2022-11-06T13:34:01.432Z,8.27
2022-11-06T13:37:12.594Z,12.10
2022-11-06T13:40:40.184Z,9.67
2022-11-06T13:43:53.895Z,9.13
2022-11-06T13:47:11.743Z,9.07
2022-11-06T13:50:31.642Z,11.43
2022-11-06T17:32:42.870Z,30.77
2022-11-06T17:35:48.049Z,30.53
2022-11-06T17:38:50.113Z,33.30
2022-11-06T17:41:56.319Z,31.70
2022-11-06T17:44:58.282Z,30.83
2022-11-06T17:48:04.045Z,36.77
2022-11-06T17:51:24.777Z,27.37
2022-11-06T17:54:39.303Z,30.97
2022-11-06T17:57:43.127Z,31.97
2022-11-06T18:00:48.118Z,32.50
2022-11-06T18:03:50.325Z,33.13
2022-11-06T18:06:53.539Z,28.90
2022-11-06T18:09:55.405Z,33.40
2022-11-06T18:12:57.622Z,34.67
2022-11-06T18:16:00.005Z,39.30
2022-11-06T18:19:06.006Z,40.13
2022-11-06T18:22:07.996Z,39.47
2022-11-06T18:25:14.638Z,39.80
2022-11-06T18:28:16.764Z,37.50
2022-11-06T18:31:19.975Z,38.60
2022-11-06T18:34:24.706Z,34.77
2022-11-06T18:37:27.037Z,38.80
2022-11-06T18:40:29.190Z,40.77
2022-11-06T18:43:31.557Z,40.00
2022-11-06T18:46:33.539Z,42.43
2022-11-06T18:49:36.047Z,42.23
2022-11-06T18:52:57.061Z,41.60
2022-11-06T18:56:00.578Z,40.97
2022-11-06T18:59:03.095Z,38.70
2022-11-06T19:02:05.457Z,40.77
2022-11-06T19:05:07.839Z,40.50
2022-11-06T19:08:10.401Z,32.87
2022-11-06T19:11:15.272Z,38.67
2022-11-06T19:14:17.606Z,41.47
2022-11-06T19:17:19.458Z,36.07
2022-11-06T19:20:23.322Z,38.57
2022-11-06T19:23:25.699Z,36.13
2022-11-06T19:26:32.097Z,38.60
2022-11-06T19:29:35.426Z,39.77
2022-11-06T19:32:37.698Z,33.33
2022-11-06T19:35:42.666Z,37.73
2022-11-06T19:38:45.170Z,33.17
2022-11-06T19:41:47.276Z,33.93
2022-11-06T19:44:49.674Z,35.03
2022-11-06T19:47:51.711Z,30.47
2022-11-06T19:51:00.080Z,32.10
2022-11-06T19:54:02.461Z,32.47
2022-11-06T19:57:28.169Z,33.47
2022-11-06T20:00:26.591Z,32.27
2022-11-06T20:03:28.977Z,35.20
2022-11-06T20:06:31.162Z,36.43
2022-11-06T20:09:34.479Z,30.67
2022-11-06T20:12:36.401Z,34.00
2022-11-06T20:15:39.301Z,31.00
2022-11-06T20:18:42.731Z,34.07
2022-11-06T20:21:44.954Z,32.70
2022-11-06T20:24:46.933Z,41.50
2022-11-06T20:27:49.362Z,30.80
2022-11-06T20:30:52.562Z,30.43
2022-11-06T20:33:57.636Z,33.10
2022-11-06T20:36:59.506Z,29.40
2022-11-06T20:40:01.665Z,31.13
2022-11-06T20:43:04.302Z,32.17
2022-11-06T20:46:07.134Z,32.23
2022-11-06T20:49:09.114Z,32.57
2022-11-06T20:52:14.162Z,30.83
2022-11-06T20:55:16.972Z,33.77
2022-11-06T20:58:19.166Z,32.43
2022-11-06T21:01:31.247Z,29.00
2022-11-06T21:04:33.593Z,30.23
2022-11-06T21:07:35.549Z,31.40
2022-11-06T21:10:37.760Z,32.67
2022-11-06T21:13:40.957Z,29.67
2022-11-06T21:16:43.320Z,29.90
2022-11-06T21:19:45.646Z,25.57
2022-11-06T21:22:47.815Z,31.77
2022-11-06T21:25:50.813Z,24.67
2022-11-06T21:28:53.170Z,22.53
2022-11-06T21:31:55.101Z,25.77
2022-11-06T21:34:57.268Z,22.87
2022-11-06T21:37:59.168Z,24.43
2022-11-06T21:41:05.153Z,27.93
